Gable, SC (29051)

5:51 AM EST on January 21, 2017 (GMT -0500)
Kingsbury | | Change Station
Active Advisory: Small Craft Advisory

Elev 161 ft 33.89 °N, 80.37 °W | Updated 32 seconds ago

Overcast
Overcast
56.3 °F
Feels Like 56.3 °F
N
0.0
Wind Variable Wind from ESE

Today
High -- | Low -- °F
--% Chance of Precip.
Yesterday
High -- | Low -- °F
Precip. -- in
Pressure 29.88 in
Visibility 10.0 miles
Clouds Overcast 7000 ft
Dew Point 56 °F
Humidity 98%
Rainfall 0.00 in
Snow Depth Not available.
7:23 AM 5:40 PM
Last Quarter, 36% visible
METAR KCKI 211035Z AUTO 00000KT 10SM OVC070 14/13 A2988 RMK AO2
Pressure 29.88 in
Visibility 10.0 miles
Clouds Overcast 7000 ft
Dew Point 56 °F
Humidity 98%
Rainfall 0.00 in
Snow Depth Not available.
7:23 AM 5:40 PM
Last Quarter, 36% visible
METAR KCKI 211035Z AUTO 00000KT 10SM OVC070 14/13 A2988 RMK AO2

Get Your Daily Forecast Email!

Thanks for signing up!

Be on the lookout for a verification email in your inbox.

You'll start receiving the daily forecast at 8 AM.

×

10-Day Weather Forecast

Almanac

Astronomy

Jan. 21, 2017 Rise Set
Actual Time
Civil Twilight
Nautical Twilight
Astronomical Twilight
Moon
Length of Visible Light
Length of Day
Tomorrow will be .
, % of the Moon is Illuminated

Today's Extremes

State Highs State Lows

Community

WunderPhotos

Upload Photos

1,962,540 photos uploaded!

WunderBlog® & News

Nearby

Air Quality

  Air Quality AQ Index Pollutant
Not available.

Snow Depth

Station Depth Elevation

Earthquake Activity

City Distance Mag. Time & Date
Minimum magnitude displayed is 2.5.

Coastal Water Temperatures

Place Temperature

Stations

Nearby Weather Stations

Station Location Temp. Windchill Dew Point Humidity Wind Precip. Elev Updated Type
                   

Watches & Warnings

Small Craft Advisory
Issued: 4:22 AM EST Jan. 21, 2017 – National Weather Service

... Small Craft Advisory in effect from 6 am Sunday to 6 PM EST
Tuesday...

The National Weather Service in Wilmington has issued a Small
Craft Advisory... which is in effect from 6 am Sunday to 6 PM EST
Tuesday.

* Winds and timing... for Sunday... south to southwest 20 to 25 kt.
With gusts up to 30 kt. For Monday thru Monday night... southwest
to west 20 to 30 kt with few gusts up to 35 kt.

* Seas... will peak 6 to 9 feet with a dominating period of 5 to 7
seconds. Highest seas will occur off Cape Fear.

Precautionary/preparedness actions...

A Small Craft Advisory means that wind speeds of 25 to 33 knots
and or sea of 6 ft or greater are expected to produce hazardous
wave conditions to small craft. Inexperienced mariners,
especially those operating smaller vessels should avoid
navigating in these conditions.


Dch